メインページ
METAR-TAF:

METAR-TAF

空港 :

ワガドゥグー, ブルキナファソ

ワガドゥグー空港

緯度: 12-21N, 経度: 001-31W, 海抜: 316m

現時点の気象観測

当レポートは53分前の07:00(UTC)に作成
西/南西の風 5kt
気温 26°C
湿度 45%
気圧 1013 hPa
視程: 6000m

METAR: DFFD 200700Z 25005KT 6000 NSC 26/13 Q1013 TEMPO 4000 HZ

時間: 07:53 (07:53 UTC)

予報

当レポートは2時間53分前の05:00(UTC)に作成
予報は20日の 06時(UTC)から 21日の 12時(UTC)まで有効
北東の風 8kt
視程: 8000m
20日の 06時(UTC)から 20日の 10時(UTC)まで一時的に
視程: 2500m
煙霧
20日の 17時(UTC)から 20日の 20時(UTC)まで一時的に
視程: 3500m
煙霧

TAF: DFFD 200500Z 2006/2112 04008KT 8000 NSC TEMPO 2006/2010 2500 HZ TEMPO 2017/2020 3500 HZ

4,000以上の空港の気象観測と天気予報(METAR報とTAF報)

利用可能な観測所は地図上に黄色い丸と赤い丸で示す。

丸の上にカーソルを重ねると観測所名を参照できる。

次にクリックすると気象観測と天気予報を参照できる。

マップの切り替え:黒色「×」印の緑ボタンをクリックして拡大、「-」印の緑ボタンをクリックして縮小、緑色の三角印をクリックして隣りの地図に切り替え


METAR-TAF: